createdAt,value
2019-06-10T00:02:05.814Z,21.89
2019-06-10T00:04:32.979Z,21.86
2019-06-10T00:07:02.042Z,21.73
2019-06-10T00:09:31.238Z,21.71
2019-06-10T00:11:58.412Z,21.66
2019-06-10T00:14:25.123Z,21.61
2019-06-10T00:16:52.858Z,21.53
2019-06-10T00:19:21.640Z,21.55
2019-06-10T00:21:50.918Z,21.53
2019-06-10T00:24:21.115Z,21.54
2019-06-10T00:26:47.462Z,21.52
2019-06-10T00:29:14.152Z,21.53
2019-06-10T00:31:41.747Z,21.43
2019-06-10T00:34:09.976Z,21.32
2019-06-10T00:36:37.280Z,21.33
2019-06-10T00:39:07.272Z,21.31
2019-06-10T00:41:34.725Z,21.29
2019-06-10T00:44:03.684Z,21.25
2019-06-10T00:46:31.655Z,21.21
2019-06-10T00:48:58.551Z,21.16
2019-06-10T00:51:25.212Z,21.15
2019-06-10T00:53:51.821Z,21.15
2019-06-10T00:56:18.470Z,21.15
2019-06-10T00:58:45.136Z,21.07
2019-06-10T01:01:14.464Z,21.07
2019-06-10T01:03:41.568Z,21.06
2019-06-10T01:06:08.560Z,21.02
2019-06-10T01:08:35.330Z,20.95
2019-06-10T01:11:05.673Z,20.94
2019-06-10T01:13:31.090Z,20.97
2019-06-10T01:15:57.940Z,20.94
2019-06-10T01:18:34.797Z,20.92
2019-06-10T01:20:53.328Z,20.87
2019-06-10T01:23:21.843Z,20.83
2019-06-10T01:25:51.035Z,20.83
2019-06-10T01:28:18.619Z,20.77
2019-06-10T01:30:45.479Z,20.77
2019-06-10T01:33:14.188Z,20.67
2019-06-10T01:35:41.506Z,20.69
2019-06-10T01:38:09.905Z,20.69
2019-06-10T01:40:37.129Z,20.69
2019-06-10T01:43:03.956Z,20.66
2019-06-10T01:45:31.213Z,20.66
2019-06-10T01:47:58.002Z,20.68
2019-06-10T01:50:24.749Z,20.66
2019-06-10T01:52:51.689Z,20.62
2019-06-10T01:55:18.470Z,20.62
2019-06-10T01:57:45.146Z,20.55
2019-06-10T02:00:19.691Z,20.49
2019-06-10T02:02:44.498Z,20.49
2019-06-10T02:05:13.280Z,20.43
2019-06-10T02:07:40.953Z,20.39
2019-06-10T02:10:09.465Z,20.38
2019-06-10T02:12:37.905Z,20.38
2019-06-10T02:15:07.692Z,20.39
2019-06-10T02:17:34.324Z,20.38
2019-06-10T02:20:01.229Z,20.29
2019-06-10T02:22:28.021Z,20.24
2019-06-10T02:24:54.649Z,20.18
2019-06-10T02:27:23.066Z,20.14
2019-06-10T02:29:50.729Z,20.16
2019-06-10T02:32:22.698Z,20.13
2019-06-10T02:35:01.088Z,20.12
2019-06-10T02:37:19.223Z,20.06
2019-06-10T02:39:43.925Z,20.04
2019-06-10T02:42:19.026Z,20.02
2019-06-10T02:44:44.725Z,19.98
2019-06-10T02:47:18.238Z,19.99
2019-06-10T02:49:57.105Z,19.96
2019-06-10T02:52:19.669Z,19.98
2019-06-10T02:54:46.404Z,19.96
2019-06-10T02:57:14.576Z,19.93
2019-06-10T02:59:43.569Z,19.97
2019-06-10T03:02:13.506Z,19.93
2019-06-10T03:04:43.117Z,19.88
2019-06-10T03:07:08.426Z,19.87
2019-06-10T03:09:36.066Z,19.90
2019-06-10T03:12:04.799Z,19.93
2019-06-10T03:14:32.858Z,19.93
2019-06-10T03:17:03.200Z,19.90
2019-06-10T03:19:46.591Z,19.90
2019-06-10T03:21:58.539Z,19.88
2019-06-10T03:24:25.413Z,19.90
2019-06-10T03:26:52.319Z,19.85
2019-06-10T03:29:19.003Z,19.83
2019-06-10T03:31:48.021Z,19.82
2019-06-10T03:34:18.081Z,19.74
2019-06-10T03:36:44.564Z,19.73
2019-06-10T03:39:13.294Z,19.71
2019-06-10T03:41:42.208Z,19.72
2019-06-10T03:44:08.260Z,19.79
2019-06-10T03:46:34.883Z,19.78
2019-06-10T03:49:03.145Z,19.83
2019-06-10T03:51:29.947Z,19.94
2019-06-10T03:53:56.702Z,20.00
2019-06-10T03:56:25.132Z,20.15
2019-06-10T03:58:52.970Z,20.28
2019-06-10T04:01:19.643Z,20.39
2019-06-10T04:03:46.274Z,20.44
2019-06-10T04:06:13.264Z,20.57
2019-06-10T04:08:39.964Z,20.68
2019-06-10T04:11:08.886Z,20.72
2019-06-10T04:13:35.533Z,20.73
2019-06-10T04:16:02.838Z,20.88
2019-06-10T04:18:32.734Z,20.67
2019-06-10T04:20:59.327Z,20.64
2019-06-10T04:23:27.255Z,20.65
2019-06-10T04:25:54.461Z,20.60
2019-06-10T04:28:24.120Z,20.41
2019-06-10T04:30:49.819Z,20.32
2019-06-10T04:33:16.419Z,20.40
2019-06-10T04:35:44.000Z,20.36
2019-06-10T04:38:12.958Z,20.56
2019-06-10T04:40:39.368Z,20.67
2019-06-10T04:43:06.003Z,20.77
2019-06-10T04:45:32.628Z,20.81
2019-06-10T04:47:59.211Z,20.90
2019-06-10T04:50:35.215Z,20.91
2019-06-10T04:52:54.422Z,20.88
2019-06-10T04:55:23.185Z,20.68
2019-06-10T04:57:51.989Z,20.78
2019-06-10T05:00:19.224Z,20.90
2019-06-10T05:02:45.956Z,21.05
2019-06-10T05:05:13.198Z,21.12
2019-06-10T05:07:39.958Z,21.10
2019-06-10T05:10:06.956Z,21.13
2019-06-10T05:12:33.518Z,21.14
2019-06-10T05:15:00.171Z,21.07
2019-06-10T05:17:29.171Z,21.20
2019-06-10T05:19:55.297Z,21.41
2019-06-10T05:22:23.742Z,21.55
2019-06-10T05:24:52.635Z,21.42
2019-06-10T05:27:20.429Z,21.29
2019-06-10T05:29:48.589Z,21.35
2019-06-10T05:32:15.184Z,21.55
2019-06-10T05:34:43.734Z,21.65
2019-06-10T05:37:12.110Z,21.67
2019-06-10T05:39:38.837Z,21.71
2019-06-10T05:42:05.433Z,21.74
2019-06-10T05:44:34.446Z,21.73
2019-06-10T05:47:03.428Z,21.71
2019-06-10T05:49:31.213Z,21.67
2019-06-10T05:51:58.586Z,21.58
2019-06-10T05:54:26.373Z,21.50
2019-06-10T05:56:53.766Z,21.66
2019-06-10T05:59:22.618Z,21.72
2019-06-10T06:01:48.958Z,21.80
2019-06-10T06:04:15.680Z,21.94
2019-06-10T06:06:44.981Z,21.96
2019-06-10T06:09:12.964Z,22.00
2019-06-10T06:11:39.429Z,22.11
2019-06-10T06:14:06.252Z,21.98
2019-06-10T06:16:34.858Z,21.85
2019-06-10T06:19:03.306Z,21.85
2019-06-10T06:21:34.527Z,22.08
2019-06-10T06:23:58.636Z,22.05
2019-06-10T06:26:26.393Z,22.18
2019-06-10T06:28:54.513Z,22.43
2019-06-10T06:31:23.266Z,22.60
2019-06-10T06:33:52.393Z,22.70
2019-06-10T06:36:18.191Z,23.01
2019-06-10T06:38:44.863Z,23.10
2019-06-10T06:41:13.711Z,23.28
2019-06-10T06:43:42.699Z,23.38
2019-06-10T06:46:08.657Z,23.36
2019-06-10T06:48:38.398Z,23.33
2019-06-10T06:51:08.283Z,23.38
2019-06-10T06:53:42.628Z,23.59
2019-06-10T06:56:03.525Z,23.76
2019-06-10T06:58:33.580Z,23.81
2019-06-10T07:01:05.939Z,23.85
2019-06-10T07:03:27.636Z,23.95
2019-06-10T07:05:55.184Z,24.18
2019-06-10T07:08:24.111Z,24.27
2019-06-10T07:10:52.260Z,24.21
2019-06-10T07:13:18.972Z,24.29
2019-06-10T07:15:48.434Z,24.23
2019-06-10T07:18:15.029Z,24.52
2019-06-10T07:20:45.473Z,24.73
2019-06-10T07:23:10.245Z,24.70
2019-06-10T07:25:38.474Z,24.81
2019-06-10T07:28:05.424Z,24.98
2019-06-10T07:30:36.872Z,25.23
2019-06-10T07:33:02.828Z,25.49
2019-06-10T07:35:29.216Z,25.64
2019-06-10T07:37:55.929Z,25.75
2019-06-10T07:40:22.506Z,25.77
2019-06-10T07:42:49.546Z,25.85
2019-06-10T07:45:16.408Z,25.95
2019-06-10T07:47:44.240Z,26.12
2019-06-10T07:50:12.159Z,26.27
2019-06-10T07:52:39.335Z,26.47
2019-06-10T07:55:06.629Z,26.34
2019-06-10T07:57:34.755Z,26.51
2019-06-10T08:00:07.933Z,26.73
2019-06-10T08:02:35.637Z,26.95
2019-06-10T08:05:03.678Z,27.34
2019-06-10T08:07:33.252Z,27.71
2019-06-10T08:09:59.024Z,27.83
2019-06-10T08:12:25.650Z,27.69
2019-06-10T08:14:53.309Z,27.72
2019-06-10T08:17:22.282Z,27.81
2019-06-10T08:19:50.967Z,27.96
2019-06-10T08:22:29.985Z,27.72
2019-06-10T08:24:45.733Z,28.18
2019-06-10T08:27:12.374Z,28.00
2019-06-10T08:29:40.907Z,27.99
2019-06-10T08:32:07.693Z,28.00
2019-06-10T08:34:34.352Z,28.27
2019-06-10T08:37:04.204Z,28.54
2019-06-10T08:39:29.491Z,28.83
2019-06-10T08:41:59.185Z,28.66
2019-06-10T08:44:25.819Z,28.80
2019-06-10T08:46:52.634Z,28.82
2019-06-10T08:49:20.388Z,29.02
2019-06-10T08:51:50.109Z,29.52
2019-06-10T08:54:16.371Z,29.83
2019-06-10T08:56:47.605Z,30.18
2019-06-10T08:59:13.289Z,30.31
2019-06-10T09:01:41.879Z,30.20
2019-06-10T09:04:08.416Z,30.54
2019-06-10T09:06:36.091Z,30.98
2019-06-10T09:09:06.005Z,30.28
2019-06-10T09:11:33.029Z,30.17
2019-06-10T09:14:02.390Z,29.73
2019-06-10T09:16:28.155Z,29.25
2019-06-10T09:18:55.425Z,28.95
2019-06-10T09:21:23.306Z,29.14
2019-06-10T09:23:59.410Z,29.51
2019-06-10T09:26:22.870Z,29.69
2019-06-10T09:28:55.603Z,30.23
2019-06-10T09:31:22.993Z,30.62
2019-06-10T09:33:50.787Z,30.70
2019-06-10T09:36:16.885Z,31.07
2019-06-10T09:38:47.294Z,30.80
2019-06-10T09:41:14.237Z,30.94
2019-06-10T09:43:45.402Z,31.70
2019-06-10T09:46:09.245Z,31.34
2019-06-10T09:48:35.891Z,31.05
2019-06-10T09:51:03.056Z,30.82
2019-06-10T09:53:41.490Z,30.47
2019-06-10T09:56:03.828Z,30.67
2019-06-10T09:58:33.058Z,30.39
2019-06-10T10:01:02.978Z,30.29
2019-06-10T10:03:28.483Z,30.19
2019-06-10T10:06:09.364Z,30.55
2019-06-10T10:08:24.438Z,31.29
2019-06-10T10:10:57.775Z,31.16
2019-06-10T10:13:22.408Z,30.95
2019-06-10T10:15:48.338Z,31.14
2019-06-10T10:18:15.426Z,31.43
2019-06-10T10:20:46.157Z,31.76
2019-06-10T10:23:13.657Z,32.04
2019-06-10T10:25:43.320Z,31.56
2019-06-10T10:28:13.284Z,31.63
2019-06-10T10:30:39.208Z,31.77
2019-06-10T10:33:05.823Z,31.88
2019-06-10T10:35:32.705Z,31.81
2019-06-10T10:37:59.385Z,32.06
2019-06-10T10:40:26.209Z,32.36
2019-06-10T10:43:05.160Z,32.25
2019-06-10T10:45:22.753Z,32.42
2019-06-10T10:47:51.851Z,32.12
2019-06-10T10:50:18.753Z,32.19
2019-06-10T10:52:46.780Z,32.04
2019-06-10T10:55:14.424Z,31.85
2019-06-10T10:57:40.923Z,31.45
2019-06-10T11:00:09.096Z,31.73
2019-06-10T11:02:35.708Z,32.29
2019-06-10T11:05:05.073Z,32.65
2019-06-10T11:07:33.985Z,31.48
2019-06-10T11:10:04.558Z,31.68
2019-06-10T11:12:34.122Z,32.41
2019-06-10T11:15:02.864Z,32.92
2019-06-10T11:17:33.657Z,32.93
2019-06-10T11:20:03.695Z,32.49
2019-06-10T11:22:29.664Z,31.66
2019-06-10T11:24:57.708Z,32.05
2019-06-10T11:27:24.554Z,32.36
2019-06-10T11:29:53.580Z,32.68
2019-06-10T11:32:19.754Z,32.93
2019-06-10T11:34:47.734Z,32.64
2019-06-10T11:37:14.784Z,32.93
2019-06-10T11:39:42.475Z,33.22
2019-06-10T11:42:09.044Z,33.27
2019-06-10T11:44:35.677Z,33.21
2019-06-10T11:47:03.208Z,32.79
2019-06-10T11:49:29.989Z,33.16
2019-06-10T11:51:59.499Z,33.15
2019-06-10T11:54:25.175Z,32.84
2019-06-10T11:56:54.610Z,32.84
2019-06-10T11:59:20.406Z,33.00
2019-06-10T12:01:48.950Z,33.16
2019-06-10T12:04:17.375Z,33.51
2019-06-10T12:06:43.989Z,33.63
2019-06-10T12:09:13.518Z,34.28
2019-06-10T12:11:39.128Z,34.49
2019-06-10T12:14:05.928Z,34.83
2019-06-10T12:17:15.627Z,35.33
2019-06-10T12:19:03.529Z,34.72
2019-06-10T12:21:32.897Z,34.83
2019-06-10T12:24:02.416Z,34.48
2019-06-10T12:26:27.757Z,33.32
2019-06-10T12:28:56.470Z,32.31
2019-06-10T12:31:23.299Z,32.68
2019-06-10T12:33:51.148Z,32.99
2019-06-10T12:36:18.801Z,33.27
2019-06-10T12:38:47.321Z,33.13
2019-06-10T12:41:14.317Z,33.25
2019-06-10T12:43:43.329Z,32.79
2019-06-10T12:46:09.489Z,32.64
2019-06-10T12:48:36.107Z,32.93
2019-06-10T12:51:08.832Z,33.18
2019-06-10T12:53:32.611Z,33.41
2019-06-10T12:56:02.372Z,32.69
2019-06-10T12:58:28.081Z,33.25
2019-06-10T13:00:55.548Z,33.29
2019-06-10T13:03:23.781Z,33.04
2019-06-10T13:05:55.775Z,32.69
2019-06-10T13:08:26.487Z,32.62
2019-06-10T13:10:53.475Z,32.14
2019-06-10T13:13:22.471Z,32.66
2019-06-10T13:15:48.916Z,32.92
2019-06-10T13:18:19.386Z,32.94
2019-06-10T13:20:44.072Z,33.03
2019-06-10T13:23:20.347Z,32.91
2019-06-10T13:25:51.208Z,33.33
2019-06-10T13:28:08.564Z,33.31
2019-06-10T13:30:35.193Z,33.03
2019-06-10T13:33:06.657Z,33.42
2019-06-10T13:35:32.148Z,33.63
2019-06-10T13:38:01.004Z,33.27
2019-06-10T13:40:28.286Z,33.24
2019-06-10T13:42:54.938Z,33.30
2019-06-10T13:45:25.579Z,32.81
2019-06-10T13:47:53.082Z,32.48
2019-06-10T13:50:22.124Z,32.74
2019-06-10T13:52:48.500Z,33.09
2019-06-10T13:55:16.192Z,33.14
2019-06-10T13:57:45.578Z,33.16
2019-06-10T14:00:14.637Z,32.93
2019-06-10T14:02:43.104Z,32.84
2019-06-10T14:05:17.201Z,33.00
2019-06-10T14:07:43.442Z,33.26
2019-06-10T14:10:17.825Z,32.86
2019-06-10T14:12:43.147Z,33.01
2019-06-10T14:15:11.083Z,33.16
2019-06-10T14:17:38.240Z,33.37
2019-06-10T14:20:08.137Z,33.32
2019-06-10T14:22:36.578Z,32.82
2019-06-10T14:25:09.573Z,32.81
2019-06-10T14:27:36.583Z,32.73
2019-06-10T14:30:06.590Z,32.85
2019-06-10T14:32:34.202Z,32.97
2019-06-10T14:35:00.861Z,33.11
2019-06-10T14:37:35.793Z,33.14
2019-06-10T14:39:57.953Z,33.39
2019-06-10T14:42:25.730Z,33.63
2019-06-10T14:44:52.707Z,33.30
2019-06-10T14:47:19.355Z,33.48
2019-06-10T14:49:48.765Z,33.51
2019-06-10T14:52:17.606Z,33.36
2019-06-10T14:54:45.451Z,33.39
2019-06-10T14:57:13.811Z,33.47
2019-06-10T14:59:42.544Z,33.00
2019-06-10T15:02:09.917Z,32.55
2019-06-10T15:04:38.772Z,32.56
2019-06-10T15:07:05.392Z,32.66
2019-06-10T15:09:33.489Z,32.50
2019-06-10T15:12:02.666Z,32.43
2019-06-10T15:14:28.723Z,32.73
2019-06-10T15:16:55.291Z,32.93
2019-06-10T15:19:28.299Z,32.90
2019-06-10T15:21:52.738Z,32.84
2019-06-10T15:24:21.027Z,32.50
2019-06-10T15:26:47.876Z,32.61
2019-06-10T15:29:17.099Z,32.72
2019-06-10T15:31:45.595Z,32.73
2019-06-10T15:34:15.010Z,32.58
2019-06-10T15:36:43.209Z,32.50
2019-06-10T15:39:11.708Z,32.27
2019-06-10T15:41:38.531Z,32.08
2019-06-10T15:44:07.174Z,32.04
2019-06-10T15:46:33.809Z,31.99
2019-06-10T15:49:02.403Z,31.82
2019-06-10T15:51:29.202Z,31.29
2019-06-10T15:53:55.807Z,31.26
2019-06-10T15:56:37.299Z,31.15
2019-06-10T15:58:52.200Z,31.07
2019-06-10T16:01:24.453Z,30.89
2019-06-10T16:03:47.540Z,30.87
2019-06-10T16:06:14.200Z,30.79
2019-06-10T16:08:43.155Z,30.79
2019-06-10T16:11:09.957Z,30.74
2019-06-10T16:13:36.609Z,30.79
2019-06-10T16:16:03.780Z,30.87
2019-06-10T16:18:32.968Z,30.64
2019-06-10T16:20:59.836Z,30.55
2019-06-10T16:23:26.935Z,30.55
2019-06-10T16:25:56.743Z,30.60
2019-06-10T16:28:26.150Z,30.54
2019-06-10T16:30:53.818Z,30.57
2019-06-10T16:33:23.320Z,30.55
2019-06-10T16:35:50.742Z,30.54
2019-06-10T16:38:17.324Z,30.44
2019-06-10T16:40:43.913Z,30.44
2019-06-10T16:43:10.690Z,30.40
2019-06-10T16:45:37.291Z,30.27
2019-06-10T16:48:05.703Z,29.90
2019-06-10T16:50:34.168Z,29.47
2019-06-10T16:53:02.989Z,29.14
2019-06-10T16:55:33.232Z,28.75
2019-06-10T16:57:59.902Z,28.57
2019-06-10T17:00:27.713Z,28.56
2019-06-10T17:02:54.716Z,28.46
2019-06-10T17:05:25.115Z,28.51
2019-06-10T17:07:52.584Z,28.57
2019-06-10T17:10:19.627Z,28.61
2019-06-10T17:12:48.037Z,28.66
2019-06-10T17:15:15.759Z,28.72
2019-06-10T17:17:42.342Z,28.75
2019-06-10T17:20:09.249Z,28.76
2019-06-10T17:22:35.864Z,28.59
2019-06-10T17:25:06.885Z,28.53
2019-06-10T17:27:33.508Z,28.35
2019-06-10T17:30:02.905Z,28.40
2019-06-10T17:32:32.830Z,28.40
2019-06-10T17:35:02.287Z,28.30
2019-06-10T17:37:29.255Z,28.24
2019-06-10T17:39:55.871Z,28.22
2019-06-10T17:42:27.822Z,28.20
2019-06-10T17:44:52.942Z,28.26
2019-06-10T17:47:19.533Z,28.28
2019-06-10T17:49:46.321Z,28.30
2019-06-10T17:52:14.454Z,28.31
2019-06-10T17:54:41.067Z,28.37
2019-06-10T17:57:07.725Z,28.38
2019-06-10T17:59:35.517Z,28.37
2019-06-10T18:02:02.998Z,28.42
2019-06-10T18:04:31.446Z,28.44
2019-06-10T18:06:58.218Z,28.44
2019-06-10T18:09:26.101Z,28.34
2019-06-10T18:11:52.888Z,28.37
2019-06-10T18:14:22.921Z,28.46
2019-06-10T18:16:52.315Z,28.44
2019-06-10T18:19:18.315Z,28.46
2019-06-10T18:21:47.194Z,28.50
2019-06-10T18:24:14.933Z,28.38
2019-06-10T18:26:42.379Z,28.29
2019-06-10T18:29:09.689Z,28.18
2019-06-10T18:31:37.185Z,28.12
2019-06-10T18:34:03.848Z,28.02
2019-06-10T18:36:33.087Z,27.91
2019-06-10T18:39:02.834Z,27.81
2019-06-10T18:41:29.605Z,27.67
2019-06-10T18:43:56.184Z,27.60
2019-06-10T18:46:23.326Z,27.45
2019-06-10T18:48:49.943Z,27.40
2019-06-10T18:51:16.803Z,27.34
2019-06-10T18:53:43.385Z,27.33
2019-06-10T18:56:12.653Z,27.25
2019-06-10T18:58:39.027Z,27.21
2019-06-10T19:01:07.874Z,27.17
2019-06-10T19:03:35.978Z,27.10
2019-06-10T19:06:03.078Z,26.92
2019-06-10T19:08:31.837Z,26.85
2019-06-10T19:10:58.304Z,26.80
2019-06-10T19:13:24.914Z,26.74
2019-06-10T19:15:53.226Z,26.69
2019-06-10T19:18:22.932Z,26.64
2019-06-10T19:20:48.665Z,26.60
2019-06-10T19:23:16.482Z,26.51
2019-06-10T19:25:45.147Z,26.42
2019-06-10T19:28:12.279Z,26.32
2019-06-10T19:30:40.505Z,26.18
2019-06-10T19:36:54.909Z,26.02
2019-06-10T19:39:22.222Z,25.87
2019-06-10T19:41:53.001Z,25.92
2019-06-10T19:44:19.546Z,25.95
2019-06-10T19:46:46.406Z,25.90
2019-06-10T19:49:14.425Z,25.90
2019-06-10T19:51:44.071Z,25.84
2019-06-10T19:54:09.635Z,25.84
2019-06-10T19:56:37.135Z,25.85
2019-06-10T19:59:03.978Z,25.82
2019-06-10T20:01:33.315Z,25.76
2019-06-10T20:03:59.001Z,25.74
2019-06-10T20:06:25.920Z,25.74
2019-06-10T20:08:52.553Z,25.69
2019-06-10T20:11:22.736Z,25.67
2019-06-10T20:13:50.012Z,25.63
2019-06-10T20:16:16.790Z,25.57
2019-06-10T20:18:47.547Z,25.58
2019-06-10T20:21:13.091Z,25.59
2019-06-10T20:23:39.697Z,25.55
2019-06-10T20:26:06.765Z,25.48
2019-06-10T20:28:33.378Z,25.47
2019-06-10T20:30:59.993Z,25.44
2019-06-10T20:33:37.009Z,25.34
2019-06-10T20:36:07.516Z,25.30
2019-06-10T20:38:32.532Z,25.28
2019-06-10T20:40:59.551Z,25.25
2019-06-10T20:43:26.134Z,25.25
2019-06-10T20:45:52.761Z,25.30
2019-06-10T20:48:19.483Z,25.32
2019-06-10T20:50:47.413Z,25.31
2019-06-10T20:53:18.597Z,25.28
2019-06-10T20:55:51.115Z,25.26
2019-06-10T20:58:13.493Z,25.20
2019-06-10T21:00:48.051Z,25.20
2019-06-10T21:03:09.580Z,25.21
2019-06-10T21:05:36.193Z,25.21
2019-06-10T21:08:05.374Z,25.23
2019-06-10T21:10:36.749Z,25.19
2019-06-10T21:13:05.022Z,25.15
2019-06-10T21:15:33.320Z,25.07
2019-06-10T21:18:00.178Z,25.11
2019-06-10T21:20:26.760Z,25.02
2019-06-10T21:22:53.626Z,24.96
2019-06-10T21:25:20.286Z,24.93
2019-06-10T21:27:49.611Z,24.85
2019-06-10T21:30:17.627Z,24.86
2019-06-10T21:32:47.427Z,24.83
2019-06-10T21:35:15.714Z,24.81
2019-06-10T21:37:45.063Z,24.80
2019-06-10T21:40:12.782Z,24.73
2019-06-10T21:42:39.499Z,24.64
2019-06-10T21:45:06.387Z,24.57
2019-06-10T21:47:33.022Z,24.57
2019-06-10T21:50:01.468Z,24.58
2019-06-10T21:52:28.138Z,24.47
2019-06-10T21:54:54.812Z,24.40
2019-06-10T21:57:22.138Z,24.35
2019-06-10T21:59:51.001Z,24.33
2019-06-10T22:02:18.444Z,24.30
2019-06-10T22:04:46.335Z,24.28
2019-06-10T22:07:15.620Z,24.22
2019-06-10T22:09:42.909Z,24.17
2019-06-10T22:12:12.024Z,24.12
2019-06-10T22:14:38.812Z,24.05
2019-06-10T22:17:05.465Z,24.09
2019-06-10T22:19:32.339Z,24.05
2019-06-10T22:22:02.759Z,23.97
2019-06-10T22:24:29.617Z,23.91
2019-06-10T22:26:58.023Z,23.97
2019-06-10T22:29:25.821Z,23.94
2019-06-10T22:31:55.049Z,24.00
2019-06-10T22:34:22.840Z,23.97
2019-06-10T22:36:53.880Z,24.05
2019-06-10T22:39:22.258Z,24.01
2019-06-10T22:41:49.005Z,23.89
2019-06-10T22:44:20.899Z,23.81
2019-06-10T22:46:49.563Z,23.82
2019-06-10T22:49:16.354Z,23.95
2019-06-10T22:51:45.016Z,23.84
2019-06-10T22:54:11.704Z,23.78
2019-06-10T22:56:38.334Z,24.04
2019-06-10T22:59:06.061Z,24.08
2019-06-10T23:01:38.250Z,23.90
2019-06-10T23:04:03.873Z,23.80
2019-06-10T23:06:30.750Z,23.71
2019-06-10T23:08:58.109Z,23.64
2019-06-10T23:11:27.187Z,23.59
2019-06-10T23:13:56.543Z,23.59
2019-06-10T23:16:25.331Z,23.55
2019-06-10T23:18:56.745Z,23.57
2019-06-10T23:21:22.273Z,23.51
2019-06-10T23:23:49.408Z,23.47
2019-06-10T23:26:16.173Z,23.38
2019-06-10T23:28:42.804Z,23.31
2019-06-10T23:31:12.797Z,23.24
2019-06-10T23:33:39.268Z,23.17
2019-06-10T23:36:08.048Z,23.15
2019-06-10T23:38:34.712Z,23.06
2019-06-10T23:41:03.563Z,23.03
2019-06-10T23:43:29.936Z,23.01
2019-06-10T23:45:57.184Z,22.96
2019-06-10T23:48:25.868Z,22.90
2019-06-10T23:50:55.767Z,22.85
2019-06-10T23:53:23.344Z,22.84
2019-06-10T23:55:51.814Z,22.86
2019-06-10T23:58:22.037Z,22.82
